Time;durP1;ratioP1;P1;durP2;ratioP2;P2;SDS_P1;SDS_P2;PMS_P1;PMS_P2;Temp;Humidity;BMP_temperature;BMP_pressure;BME280_temperature;BME280_humidity;BME280_pressure;Samples;Min_cycle;Max_cycle;Signal;HPM_P1;HPM_P2
2022/03/22 00:00:38;;;;;;;14.80;12.97;;;10.50;42.40;;;;;;5006279;28;20182;-88
2022/03/22 00:03:04;;;;;;;15.00;13.50;;;10.50;45.20;;;;;;5002625;28;20179;-85
2022/03/22 00:05:31;;;;;;;14.73;13.40;;;10.50;43.00;;;;;;4993593;28;20226;-84
2022/03/22 00:07:59;;;;;;;16.03;14.43;;;10.40;42.70;;;;;;4979924;28;20201;-84
2022/03/22 00:10:25;;;;;;;15.77;13.53;;;10.40;43.30;;;;;;5001586;28;20201;-83
2022/03/22 00:12:51;;;;;;;14.67;13.27;;;10.30;44.10;;;;;;4978063;28;20195;-86
2022/03/22 00:15:17;;;;;;;15.03;13.20;;;10.30;44.40;;;;;;4999199;28;20206;-85
2022/03/22 00:17:43;;;;;;;16.03;13.90;;;10.30;44.30;;;;;;4975953;28;20222;-85
2022/03/22 00:20:10;;;;;;;15.13;13.43;;;10.20;43.50;;;;;;4979788;28;20182;-85
2022/03/22 00:22:40;;;;;;;14.30;12.87;;;10.20;44.20;;;;;;4999603;28;20183;-87
2022/03/22 00:25:07;;;;;;;15.53;13.87;;;10.10;44.80;;;;;;4999115;28;20242;-85
2022/03/22 00:27:50;;;;;;;15.07;12.90;;;10.10;45.70;;;;;;4987140;28;20202;-86
2022/03/22 00:30:20;;;;;;;13.70;12.33;;;10.10;46.40;;;;;;5000154;28;20178;-85
2022/03/22 00:32:47;;;;;;;15.57;13.00;;;10.00;48.10;;;;;;5000907;28;20193;-86
2022/03/22 00:35:13;;;;;;;14.83;13.30;;;9.90;48.20;;;;;;5001411;28;20298;-86
2022/03/22 00:37:42;;;;;;;14.17;12.73;;;10.00;49.00;;;;;;5005713;28;20182;-85
2022/03/22 00:40:12;;;;;;;14.17;12.87;;;10.00;48.80;;;;;;4996886;28;20294;-84
2022/03/22 00:42:38;;;;;;;15.27;13.67;;;10.10;48.80;;;;;;4971553;28;20190;-85
2022/03/22 00:45:04;;;;;;;15.10;13.50;;;10.10;45.40;;;;;;4979324;28;20235;-87
2022/03/22 00:47:30;;;;;;;15.37;13.87;;;10.00;44.20;;;;;;4998926;28;20182;-85
2022/03/22 00:49:55;;;;;;;14.87;13.13;;;9.90;44.00;;;;;;4980098;28;20187;-84
2022/03/22 00:52:21;;;;;;;15.00;13.50;;;9.80;45.20;;;;;;4996591;28;20201;-85
2022/03/22 00:54:46;;;;;;;13.70;12.30;;;9.80;45.40;;;;;;4993933;28;20210;-86
2022/03/22 00:57:12;;;;;;;15.17;12.80;;;9.80;47.50;;;;;;4977382;28;20246;-86
2022/03/22 01:02:23;;;;;;;13.10;11.80;;;9.90;46.90;;;;;;5000180;28;20252;-84
2022/03/22 01:04:48;;;;;;;15.07;13.33;;;9.80;44.90;;;;;;5000211;28;20281;-84
2022/03/22 01:07:14;;;;;;;16.30;14.10;;;9.50;46.30;;;;;;4993527;28;20183;-86
2022/03/22 01:09:39;;;;;;;16.03;13.23;;;9.30;47.20;;;;;;4984421;28;20195;-86
2022/03/22 01:12:06;;;;;;;13.70;12.30;;;9.10;48.80;;;;;;4976042;28;20227;-85
2022/03/22 01:14:32;;;;;;;14.00;12.57;;;8.90;50.90;;;;;;4981233;28;20222;-85
2022/03/22 01:16:57;;;;;;;13.07;11.77;;;8.90;50.50;;;;;;4998191;28;20225;-87
2022/03/22 01:19:23;;;;;;;15.83;13.53;;;8.90;50.50;;;;;;4996420;28;20187;-84
2022/03/22 01:21:49;;;;;;;15.43;13.50;;;8.80;49.90;;;;;;4979013;28;20194;-86
2022/03/22 01:24:15;;;;;;;12.77;11.47;;;8.60;48.40;;;;;;4997471;28;20288;-86
2022/03/22 01:26:41;;;;;;;16.20;13.87;;;8.70;51.30;;;;;;4997995;28;20186;-85
2022/03/22 01:29:07;;;;;;;14.27;12.67;;;8.80;48.30;;;;;;4985846;28;20182;-84
2022/03/22 01:31:34;;;;;;;14.50;13.00;;;8.80;48.20;;;;;;4985606;28;20673;-85
2022/03/22 01:34:00;;;;;;;14.10;12.60;;;8.90;49.20;;;;;;4992414;28;20210;-85
2022/03/22 01:36:29;;;;;;;14.53;13.07;;;8.90;47.90;;;;;;4996113;28;20242;-85
2022/03/22 01:38:54;;;;;;;14.50;12.77;;;8.90;47.70;;;;;;4991779;28;20210;-84
2022/03/22 01:41:20;;;;;;;14.57;11.90;;;8.90;48.70;;;;;;4987313;28;20187;-87
2022/03/22 01:43:46;;;;;;;13.60;12.27;;;8.80;48.60;;;;;;4988514;28;20202;-85
2022/03/22 01:46:13;;;;;;;15.57;13.87;;;8.70;49.60;;;;;;4985283;28;20183;-84
2022/03/22 01:48:40;;;;;;;15.83;13.93;;;8.70;50.90;;;;;;4996562;28;20195;-85
2022/03/22 01:51:05;;;;;;;14.97;13.47;;;8.60;48.50;;;;;;4985523;28;20272;-86
2022/03/22 01:53:35;;;;;;;15.30;13.70;;;8.60;50.40;;;;;;4985472;28;20273;-84
2022/03/22 01:56:01;;;;;;;13.83;12.43;;;8.60;51.00;;;;;;4998313;28;20698;-84
2022/03/22 01:58:26;;;;;;;15.07;13.57;;;8.70;52.60;;;;;;4994926;28;20186;-86
2022/03/22 02:05:51;;;;;;;14.03;12.63;;;8.60;51.90;;;;;;5003360;28;20197;-84
2022/03/22 02:06:33;;;;;;;15.27;12.80;;;8.30;52.90;;;;;;4993773;28;20193;-88
2022/03/22 02:09:00;;;;;;;14.10;12.73;;;8.20;53.80;;;;;;4998688;28;20178;-87
2022/03/22 02:11:25;;;;;;;14.37;13.00;;;8.30;54.60;;;;;;4989151;28;20201;-86
2022/03/22 02:13:51;;;;;;;12.97;11.67;;;8.40;54.50;;;;;;5007175;28;20190;-85
2022/03/22 02:16:17;;;;;;;13.57;12.10;;;8.50;53.80;;;;;;4987349;28;20179;-86
2022/03/22 02:18:44;;;;;;;15.10;12.83;;;8.60;53.10;;;;;;4987359;28;20574;-84
2022/03/22 02:21:10;;;;;;;14.77;13.27;;;8.60;48.80;;;;;;4997191;28;20190;-88
2022/03/22 02:23:52;;;;;;;14.77;13.17;;;8.40;49.90;;;;;;4997060;28;20272;-86
2022/03/22 02:26:19;;;;;;;12.93;11.63;;;8.20;51.50;;;;;;4995883;28;20188;-86
2022/03/22 02:28:46;;;;;;;14.93;13.53;;;8.20;52.70;;;;;;4999029;28;20187;-87
2022/03/22 02:31:15;;;;;;;13.40;12.00;;;8.20;52.20;;;;;;4994584;28;20197;-85
2022/03/22 02:33:42;;;;;;;13.60;12.20;;;8.20;53.40;;;;;;4999886;28;20195;-84
2022/03/22 02:36:09;;;;;;;14.37;12.77;;;8.20;53.70;;;;;;5009316;28;20201;-86
2022/03/22 02:38:34;;;;;;;13.87;12.30;;;8.30;53.80;;;;;;4998272;28;20175;-89
2022/03/22 02:41:01;;;;;;;13.57;12.20;;;8.30;53.20;;;;;;5003484;28;20292;-84
2022/03/22 02:43:27;;;;;;;14.43;12.83;;;8.30;54.10;;;;;;5007954;28;20193;-85
2022/03/22 02:45:52;;;;;;;14.20;12.83;;;8.40;53.60;;;;;;5007568;28;20266;-85
2022/03/22 02:48:18;;;;;;;13.97;12.40;;;8.40;53.40;;;;;;5006792;28;20183;-89
2022/03/22 02:50:44;;;;;;;14.77;12.17;;;8.40;53.80;;;;;;4984820;28;20155;-85
2022/03/22 02:53:10;;;;;;;13.37;11.97;;;8.50;53.30;;;;;;4992664;28;20241;-85
2022/03/22 02:55:36;;;;;;;12.87;11.63;;;8.40;53.60;;;;;;5000964;28;20289;-84
2022/03/22 02:58:03;;;;;;;13.10;11.83;;;8.40;53.50;;;;;;4984048;28;20194;-85
2022/03/22 03:00:29;;;;;;;14.77;13.27;;;8.30;53.10;;;;;;4989371;28;20186;-85
2022/03/22 03:02:55;;;;;;;15.53;13.03;;;8.30;52.10;;;;;;4990254;28;20187;-87
2022/03/22 03:05:22;;;;;;;13.13;11.83;;;8.20;51.30;;;;;;4991985;28;20237;-85
2022/03/22 03:07:49;;;;;;;15.43;13.60;;;8.30;52.30;;;;;;4981823;28;20195;-86
2022/03/22 03:10:15;;;;;;;13.17;11.87;;;8.30;51.60;;;;;;4990142;28;20212;-86
2022/03/22 03:12:41;;;;;;;13.00;11.70;;;8.20;51.30;;;;;;4991351;28;20199;-84
2022/03/22 03:15:08;;;;;;;12.83;11.50;;;8.20;52.50;;;;;;5001566;28;20215;-87
2022/03/22 03:17:35;;;;;;;13.93;12.53;;;8.20;52.60;;;;;;5002521;28;20191;-84
2022/03/22 03:20:01;;;;;;;13.67;12.27;;;8.20;52.40;;;;;;5001254;28;20187;-87
2022/03/22 03:22:27;;;;;;;14.83;12.17;;;8.10;51.30;;;;;;4973990;28;20197;-84
2022/03/22 03:24:53;;;;;;;14.43;12.93;;;8.00;52.00;;;;;;5000040;28;20226;-85
2022/03/22 03:27:18;;;;;;;14.87;13.47;;;7.90;51.20;;;;;;4982435;28;20221;-85
2022/03/22 03:29:44;;;;;;;15.27;13.67;;;7.80;51.20;;;;;;4995667;28;20195;-86
2022/03/22 03:32:10;;;;;;;13.47;12.03;;;7.70;51.10;;;;;;4986294;28;20187;-85
2022/03/22 03:34:36;;;;;;;13.93;12.53;;;7.40;52.10;;;;;;4989440;28;20218;-85
2022/03/22 03:37:02;;;;;;;14.90;13.17;;;7.30;51.30;;;;;;4994516;28;20191;-84
2022/03/22 03:39:28;;;;;;;13.70;12.30;;;7.30;53.20;;;;;;4992923;28;20194;-83
2022/03/22 03:41:54;;;;;;;13.17;11.77;;;7.30;54.00;;;;;;4997624;28;20266;-85
2022/03/22 03:47:18;;;;;;;14.67;12.97;;;7.60;51.00;;;;;;4997730;28;20254;-83
2022/03/22 03:49:46;;;;;;;14.23;12.73;;;7.50;51.40;;;;;;4979043;28;20764;-86
2022/03/22 03:52:17;;;;;;;15.80;13.23;;;7.40;51.40;;;;;;4989760;28;20194;-85
2022/03/22 03:54:44;;;;;;;14.73;13.07;;;7.30;51.20;;;;;;5003508;28;20209;-85
2022/03/22 03:57:10;;;;;;;15.27;13.67;;;7.00;52.10;;;;;;4991547;28;20179;-85
2022/03/22 03:59:37;;;;;;;15.20;13.10;;;6.60;54.00;;;;;;4990295;28;20219;-87
2022/03/22 04:02:04;;;;;;;13.93;12.53;;;6.60;54.80;;;;;;4983355;28;20293;-85
2022/03/22 04:04:30;;;;;;;13.50;12.10;;;6.50;55.20;;;;;;5001099;28;20775;-85
2022/03/22 04:06:56;;;;;;;14.43;12.70;;;6.60;55.70;;;;;;4987470;28;20266;-84
2022/03/22 04:09:22;;;;;;;16.73;13.50;;;6.50;53.40;;;;;;4987114;28;20186;-85
2022/03/22 04:11:48;;;;;;;15.33;13.40;;;6.60;55.40;;;;;;4997001;28;20202;-85
2022/03/22 04:14:14;;;;;;;13.63;12.23;;;6.70;54.90;;;;;;4991140;28;20217;-83
2022/03/22 04:16:41;;;;;;;14.03;12.60;;;6.60;57.30;;;;;;5000362;28;20589;-85
2022/03/22 04:19:07;;;;;;;14.50;11.80;;;6.70;57.40;;;;;;5006022;28;20202;-86
2022/03/22 04:21:35;;;;;;;14.07;12.63;;;6.90;56.70;;;;;;4979768;28;20189;-88
2022/03/22 04:24:08;;;;;;;13.33;11.97;;;6.80;55.90;;;;;;5044725;23;20761;-85
2022/03/22 04:26:39;;;;;;;14.60;12.47;;;7.00;55.80;;;;;;5035054;28;20181;-84
2022/03/22 04:34:38;;;;;;;13.23;11.93;;;7.10;55.30;;;;;;5027672;28;20180;-83
2022/03/22 04:37:05;;;;;;;13.67;11.53;;;7.20;54.30;;;;;;4994686;28;20186;-83
2022/03/22 04:39:31;;;;;;;16.73;13.17;;;7.10;54.20;;;;;;4988470;28;20692;-84
2022/03/22 04:41:58;;;;;;;14.03;12.57;;;7.10;55.00;;;;;;5016176;28;20193;-84
2022/03/22 04:44:26;;;;;;;13.83;12.10;;;7.20;54.70;;;;;;5012533;28;20233;-85
2022/03/22 04:46:52;;;;;;;15.37;12.70;;;7.30;55.40;;;;;;5014472;28;20257;-84
2022/03/22 04:49:17;;;;;;;14.30;12.80;;;7.30;55.10;;;;;;5010317;28;20252;-85
2022/03/22 04:57:12;;;;;;;13.20;11.90;;;7.20;54.60;;;;;;5010763;28;20235;-85
2022/03/22 04:59:37;;;;;;;13.67;12.27;;;7.30;54.60;;;;;;4997163;28;20276;-84
2022/03/22 05:02:03;;;;;;;13.47;12.17;;;7.30;55.10;;;;;;5017676;28;20200;-85
2022/03/22 05:04:29;;;;;;;13.33;11.97;;;7.20;56.00;;;;;;5012684;28;20264;-84
2022/03/22 05:06:55;;;;;;;15.90;12.33;;;7.10;56.60;;;;;;5011389;28;20193;-85
2022/03/22 05:09:22;;;;;;;12.83;11.63;;;7.10;56.20;;;;;;5001681;28;20178;-84
2022/03/22 05:11:49;;;;;;;14.30;12.93;;;7.00;57.00;;;;;;5007501;28;20205;-84
2022/03/22 05:14:14;;;;;;;13.67;12.27;;;6.90;57.70;;;;;;5019719;28;20211;-85
2022/03/22 05:16:40;;;;;;;15.00;13.43;;;6.80;57.70;;;;;;5003705;28;20206;-85
2022/03/22 05:19:06;;;;;;;14.03;12.57;;;6.70;57.30;;;;;;5005400;28;20193;-85
2022/03/22 05:21:32;;;;;;;14.00;12.57;;;6.70;57.70;;;;;;5004709;28;20220;-84
2022/03/22 05:23:58;;;;;;;14.23;12.80;;;6.70;56.90;;;;;;4998862;28;20221;-85
2022/03/22 05:26:27;;;;;;;17.90;12.43;;;6.70;57.30;;;;;;5002057;28;20194;-84
2022/03/22 05:28:54;;;;;;;14.27;12.77;;;6.70;57.70;;;;;;5001017;28;20159;-85
2022/03/22 05:31:21;;;;;;;17.37;13.87;;;6.70;57.60;;;;;;4999580;28;20269;-84
2022/03/22 05:33:48;;;;;;;14.20;12.57;;;6.60;56.40;;;;;;5001723;28;20227;-84
2022/03/22 05:36:14;;;;;;;14.00;12.57;;;6.60;55.80;;;;;;5002564;28;20201;-84
2022/03/22 05:38:40;;;;;;;14.80;13.20;;;6.60;56.30;;;;;;5001889;28;20225;-85
2022/03/22 05:41:07;;;;;;;19.17;13.77;;;6.70;56.70;;;;;;5003048;28;20653;-84
2022/03/22 05:43:33;;;;;;;13.87;12.47;;;6.80;56.30;;;;;;5000631;28;20680;-85
2022/03/22 05:45:59;;;;;;;14.20;12.70;;;6.70;56.40;;;;;;5001389;28;20189;-84
2022/03/22 05:48:26;;;;;;;13.90;12.40;;;6.70;55.90;;;;;;5000193;28;20186;-84
2022/03/22 05:50:52;;;;;;;14.27;12.43;;;6.60;57.70;;;;;;5000041;28;20189;-84
2022/03/22 05:53:18;;;;;;;18.20;12.73;;;6.50;58.10;;;;;;4984100;28;20260;-85
2022/03/22 05:55:43;;;;;;;14.30;11.87;;;6.50;57.80;;;;;;5000633;28;20186;-85
2022/03/22 05:58:09;;;;;;;14.97;13.37;;;6.50;57.00;;;;;;4998511;28;20183;-85
2022/03/22 06:00:35;;;;;;;15.20;13.70;;;6.40;56.60;;;;;;4999422;28;20599;-85
2022/03/22 06:03:01;;;;;;;15.47;13.83;;;6.10;56.10;;;;;;4984513;28;20243;-85
2022/03/22 06:05:28;;;;;;;13.97;11.47;;;6.10;57.70;;;;;;5002830;28;20233;-85
2022/03/22 06:07:55;;;;;;;15.80;11.57;;;5.90;59.50;;;;;;5003613;28;20202;-85
2022/03/22 06:10:21;;;;;;;15.57;12.77;;;6.00;60.00;;;;;;5006201;28;20451;-85
2022/03/22 06:12:55;;;;;;;14.40;13.00;;;6.00;59.80;;;;;;5005411;28;20213;-85
2022/03/22 06:15:23;;;;;;;14.47;12.97;;;6.10;59.70;;;;;;4999710;28;20182;-85
2022/03/22 06:17:57;;;;;;;16.20;11.70;;;6.10;59.20;;;;;;5008210;28;20182;-85
2022/03/22 06:20:25;;;;;;;22.37;12.87;;;6.10;60.00;;;;;;4999286;28;20190;-85
2022/03/22 06:22:51;;;;;;;24.77;13.20;;;6.10;59.80;;;;;;5012726;28;20221;-84
2022/03/22 06:25:18;;;;;;;31.07;13.00;;;6.20;59.10;;;;;;4997818;28;20213;-84
2022/03/22 06:27:47;;;;;;;14.13;12.13;;;6.20;59.30;;;;;;5018487;28;20218;-84
2022/03/22 06:30:15;;;;;;;16.80;13.30;;;6.30;59.10;;;;;;4999375;28;20241;-85
2022/03/22 06:32:47;;;;;;;16.40;12.60;;;6.30;58.50;;;;;;5017874;28;20205;-85
2022/03/22 06:35:17;;;;;;;16.27;13.20;;;6.40;58.60;;;;;;5015064;28;20185;-84
2022/03/22 06:37:44;;;;;;;16.50;12.87;;;6.40;58.40;;;;;;4998338;28;20193;-84
2022/03/22 06:40:11;;;;;;;14.60;13.07;;;6.40;58.20;;;;;;5017878;28;20204;-84
2022/03/22 06:42:37;;;;;;;15.03;12.90;;;6.40;58.50;;;;;;4994483;28;20229;-84
2022/03/22 06:45:05;;;;;;;13.77;12.37;;;6.40;58.70;;;;;;5019447;28;20209;-85
2022/03/22 06:47:31;;;;;;;15.20;12.97;;;6.50;59.00;;;;;;5018485;28;20182;-85
2022/03/22 06:49:58;;;;;;;13.83;12.43;;;6.60;58.90;;;;;;5019638;28;20186;-84
2022/03/22 06:52:24;;;;;;;16.00;13.03;;;6.70;58.60;;;;;;5018869;28;20178;-84
2022/03/22 06:54:50;;;;;;;15.40;13.80;;;6.80;58.00;;;;;;5019858;28;20217;-83
2022/03/22 06:57:16;;;;;;;15.37;13.13;;;6.90;58.10;;;;;;5019922;28;20201;-84
2022/03/22 06:59:41;;;;;;;15.47;13.73;;;7.00;57.50;;;;;;5021651;28;21098;-84
2022/03/22 07:02:08;;;;;;;15.10;13.50;;;6.90;57.50;;;;;;5000360;28;20204;-84
2022/03/22 07:04:34;;;;;;;19.73;16.40;;;6.90;57.10;;;;;;5017520;28;20229;-84
2022/03/22 07:06:59;;;;;;;15.83;14.10;;;6.90;54.80;;;;;;5018004;28;20284;-84
2022/03/22 07:09:25;;;;;;;15.27;13.00;;;6.90;54.20;;;;;;5019813;28;20186;-84
2022/03/22 07:11:51;;;;;;;15.63;13.70;;;6.90;54.60;;;;;;5020893;28;20189;-84
2022/03/22 07:14:22;;;;;;;18.07;15.10;;;6.90;55.10;;;;;;5021041;28;20243;-84
2022/03/22 07:16:48;;;;;;;18.97;15.67;;;7.00;54.60;;;;;;5021172;28;20193;-84
2022/03/22 07:19:14;;;;;;;18.07;15.57;;;7.00;53.30;;;;;;5020796;28;20201;-85
2022/03/22 07:21:41;;;;;;;17.77;15.63;;;7.00;53.70;;;;;;5022143;28;20197;-84
2022/03/22 07:24:07;;;;;;;16.67;14.97;;;7.00;53.60;;;;;;5020237;28;20225;-84
2022/03/22 07:26:33;;;;;;;20.53;16.23;;;7.00;54.20;;;;;;5023094;28;20220;-84
2022/03/22 07:28:58;;;;;;;19.10;14.17;;;7.10;53.00;;;;;;5021961;28;20624;-84
2022/03/22 07:31:24;;;;;;;19.00;15.37;;;7.10;53.70;;;;;;5021637;28;20249;-83
2022/03/22 07:33:50;;;;;;;18.10;14.53;;;6.90;53.90;;;;;;5021859;28;20622;-84
2022/03/22 07:36:16;;;;;;;15.60;13.93;;;6.80;54.00;;;;;;5020089;28;20270;-84
2022/03/22 07:38:41;;;;;;;18.37;14.23;;;6.80;55.00;;;;;;5020051;28;20257;-85
2022/03/22 07:41:07;;;;;;;16.77;13.80;;;6.90;54.60;;;;;;5021310;28;20190;-84
2022/03/22 07:43:33;;;;;;;16.67;13.50;;;7.00;55.70;;;;;;5002692;28;20236;-84
2022/03/22 07:45:59;;;;;;;17.33;14.03;;;7.00;55.30;;;;;;5019710;28;20213;-84
2022/03/22 07:48:25;;;;;;;18.63;14.17;;;7.20;54.30;;;;;;5021917;28;20194;-83
2022/03/22 07:53:35;;;;;;;15.70;13.50;;;7.10;54.90;;;;;;5025019;28;20212;-83
2022/03/22 07:56:01;;;;;;;16.43;13.97;;;7.20;55.60;;;;;;5007888;28;20201;-83
2022/03/22 07:58:26;;;;;;;17.00;14.67;;;7.30;55.30;;;;;;5025107;28;20181;-84
2022/03/22 08:00:52;;;;;;;15.27;13.73;;;7.40;53.50;;;;;;5025154;28;20220;-83
2022/03/22 08:03:18;;;;;;;16.93;15.13;;;7.50;54.30;;;;;;5023212;28;20226;-84
2022/03/22 08:05:47;;;;;;;16.60;14.87;;;7.50;53.20;;;;;;5026299;28;20213;-84
2022/03/22 08:08:14;;;;;;;18.33;14.87;;;7.50;52.70;;;;;;5025221;28;20196;-84
2022/03/22 08:10:42;;;;;;;16.27;14.37;;;7.50;53.60;;;;;;5005885;28;20193;-84
2022/03/22 08:13:08;;;;;;;17.37;15.37;;;7.40;53.50;;;;;;5023844;28;20212;-85
2022/03/22 08:15:35;;;;;;;21.53;14.90;;;7.50;53.60;;;;;;5023952;28;20252;-84
2022/03/22 08:18:01;;;;;;;19.37;13.93;;;7.50;54.40;;;;;;5020723;28;20545;-83
2022/03/22 08:20:27;;;;;;;18.70;15.03;;;7.50;52.70;;;;;;5021491;28;20197;-84
2022/03/22 08:22:59;;;;;;;18.43;14.80;;;7.40;53.90;;;;;;5005631;28;20257;-85
2022/03/22 08:25:31;;;;;;;18.37;14.80;;;7.50;54.60;;;;;;5023055;28;20221;-85
2022/03/22 08:27:59;;;;;;;15.07;13.47;;;7.50;53.40;;;;;;5023357;28;20178;-84
2022/03/22 08:30:25;;;;;;;16.53;14.97;;;7.50;53.00;;;;;;5028119;28;20239;-84
2022/03/22 08:32:53;;;;;;;16.87;13.73;;;7.70;52.70;;;;;;5034990;28;20251;-84
2022/03/22 08:35:20;;;;;;;16.53;14.60;;;8.10;52.60;;;;;;5036064;28;20198;-84
2022/03/22 08:37:47;;;;;;;16.53;14.43;;;8.00;51.70;;;;;;5034929;28;20170;-84
2022/03/22 08:40:14;;;;;;;15.23;13.60;;;8.00;52.50;;;;;;5023915;28;20236;-83
2022/03/22 08:42:44;;;;;;;17.63;14.40;;;8.10;51.60;;;;;;5006628;28;20205;-84
2022/03/22 08:45:11;;;;;;;16.23;14.53;;;8.20;51.10;;;;;;5004864;28;20224;-84
2022/03/22 08:47:37;;;;;;;16.10;14.40;;;8.20;51.60;;;;;;5005574;28;20296;-84
2022/03/22 08:50:05;;;;;;;16.43;14.70;;;8.40;51.80;;;;;;5023858;28;20205;-84
2022/03/22 08:52:31;;;;;;;17.57;15.23;;;8.70;50.60;;;;;;5006407;28;20217;-84
2022/03/22 08:54:57;;;;;;;17.93;15.57;;;8.70;50.70;;;;;;5005758;28;20213;-83
2022/03/22 08:57:23;;;;;;;17.33;15.53;;;8.90;51.40;;;;;;5005325;28;20205;-85
2022/03/22 08:59:49;;;;;;;18.07;15.83;;;9.00;51.50;;;;;;5021887;28;20193;-84
2022/03/22 09:02:14;;;;;;;16.60;14.90;;;9.30;49.00;;;;;;5022976;28;20216;-84
2022/03/22 09:07:24;;;;;;;17.10;15.37;;;9.50;48.90;;;;;;5022280;28;20251;-84
2022/03/22 09:09:50;;;;;;;16.70;14.87;;;9.80;47.50;;;;;;5022728;28;20197;-83
2022/03/22 09:12:15;;;;;;;17.00;15.20;;;9.70;47.60;;;;;;5020848;28;20560;-84
2022/03/22 09:14:41;;;;;;;15.57;13.97;;;9.80;48.30;;;;;;4999825;28;20194;-85
2022/03/22 09:17:07;;;;;;;16.27;14.50;;;9.90;48.90;;;;;;5019431;28;20204;-84
2022/03/22 09:19:36;;;;;;;15.50;14.00;;;10.00;47.90;;;;;;5020163;28;20186;-84
2022/03/22 09:22:05;;;;;;;15.97;14.30;;;10.00;48.10;;;;;;5004252;28;20673;-84
2022/03/22 09:24:37;;;;;;;14.83;13.33;;;10.30;47.80;;;;;;5016065;28;20225;-84
2022/03/22 09:27:03;;;;;;;16.33;14.20;;;10.40;47.20;;;;;;5015016;28;20190;-81
2022/03/22 09:29:29;;;;;;;16.77;14.23;;;10.30;47.60;;;;;;4995570;28;20197;-85
2022/03/22 09:31:55;;;;;;;16.47;14.60;;;10.30;47.80;;;;;;5007530;28;20189;-85
2022/03/22 09:34:22;;;;;;;16.77;13.87;;;10.60;47.70;;;;;;5016279;28;20231;-84
2022/03/22 09:36:48;;;;;;;14.60;13.23;;;10.60;46.90;;;;;;5011049;28;20231;-84
2022/03/22 09:39:19;;;;;;;14.73;13.27;;;10.90;46.70;;;;;;4996631;28;20205;-84
2022/03/22 09:41:47;;;;;;;14.20;12.73;;;10.90;46.00;;;;;;5011192;28;20545;-84
2022/03/22 09:44:16;;;;;;;14.83;13.07;;;11.20;45.80;;;;;;5014448;28;20214;-84
2022/03/22 09:46:46;;;;;;;16.17;13.53;;;11.40;44.60;;;;;;4996980;28;20245;-84
2022/03/22 09:49:12;;;;;;;16.10;13.57;;;11.70;43.90;;;;;;5015527;28;20240;-84
2022/03/22 09:51:45;;;;;;;15.80;14.17;;;11.90;43.50;;;;;;5011615;28;20187;-84
2022/03/22 09:54:24;;;;;;;18.67;14.43;;;12.10;44.30;;;;;;5010460;28;20208;-83
2022/03/22 09:56:52;;;;;;;15.63;14.13;;;11.90;43.60;;;;;;5016216;28;20205;-84
2022/03/22 09:59:17;;;;;;;14.47;12.93;;;11.90;43.10;;;;;;5015686;28;20198;-85
2022/03/22 10:01:45;;;;;;;15.10;13.50;;;12.10;43.60;;;;;;5015337;28;20581;-84
2022/03/22 10:04:13;;;;;;;15.07;13.37;;;12.60;42.90;;;;;;5012932;28;20212;-86
2022/03/22 10:06:57;;;;;;;14.97;13.47;;;12.50;42.30;;;;;;5010169;28;20190;-84
2022/03/22 10:09:31;;;;;;;14.23;12.50;;;12.60;41.60;;;;;;4997612;28;20189;-84
2022/03/22 10:11:57;;;;;;;14.30;12.97;;;12.80;40.00;;;;;;4993840;28;20198;-84
2022/03/22 10:14:38;;;;;;;12.90;11.63;;;12.90;40.10;;;;;;5013072;28;20217;-84
2022/03/22 10:17:17;;;;;;;14.70;11.63;;;13.00;38.20;;;;;;5007702;28;20200;-84
2022/03/22 10:19:47;;;;;;;14.47;12.20;;;13.20;39.20;;;;;;5002209;28;20201;-84
2022/03/22 10:22:13;;;;;;;12.77;11.07;;;13.50;37.80;;;;;;5010297;28;20279;-84
2022/03/22 10:24:47;;;;;;;14.07;11.33;;;13.90;35.40;;;;;;5015015;28;20775;-84
2022/03/22 10:27:30;;;;;;;14.83;11.53;;;14.10;36.00;;;;;;5015806;28;20197;-84
2022/03/22 10:29:57;;;;;;;14.00;12.70;;;14.20;34.70;;;;;;5017659;28;20194;-84
2022/03/22 10:32:34;;;;;;;14.30;12.90;;;14.10;35.90;;;;;;5017681;28;20178;-84
2022/03/22 10:35:33;;;;;;;15.67;14.07;;;14.40;36.30;;;;;;4993927;28;20198;-85
2022/03/22 10:38:09;;;;;;;13.83;12.43;;;14.70;34.50;;;;;;5020054;28;20187;-84
2022/03/22 10:40:40;;;;;;;15.43;13.17;;;14.70;34.60;;;;;;5005059;28;20225;-84
2022/03/22 10:43:11;;;;;;;15.30;13.67;;;14.70;36.30;;;;;;5021770;28;20214;-83
2022/03/22 10:45:49;;;;;;;15.27;13.60;;;15.00;35.20;;;;;;5015610;28;20416;-84
2022/03/22 10:48:32;;;;;;;15.23;13.73;;;15.20;34.10;;;;;;5016642;28;20199;-83
2022/03/22 10:50:59;;;;;;;14.70;13.20;;;15.20;34.10;;;;;;5014952;28;20264;-84
2022/03/22 10:53:27;;;;;;;16.40;12.07;;;15.40;33.40;;;;;;5002896;28;20228;-84
2022/03/22 10:55:53;;;;;;;15.70;13.53;;;15.70;33.70;;;;;;5022199;28;20204;-84
2022/03/22 10:58:22;;;;;;;14.83;13.40;;;15.60;32.00;;;;;;5018668;28;20582;-84
2022/03/22 11:00:49;;;;;;;13.90;12.70;;;15.60;32.60;;;;;;4999514;28;20204;-84
2022/03/22 11:03:17;;;;;;;16.50;13.97;;;15.60;33.10;;;;;;5015102;28;20244;-84
2022/03/22 11:05:50;;;;;;;15.70;14.03;;;15.90;34.00;;;;;;5022863;28;20207;-83
2022/03/22 11:08:23;;;;;;;15.47;13.87;;;16.30;32.80;;;;;;5014245;28;20187;-84
2022/03/22 11:10:50;;;;;;;25.17;14.40;;;16.10;32.40;;;;;;5013099;28;20221;-84
2022/03/22 11:13:16;;;;;;;17.93;14.03;;;16.10;32.20;;;;;;5011134;28;20201;-84
2022/03/22 11:15:47;;;;;;;15.83;13.33;;;16.30;31.90;;;;;;5010147;28;20193;-84
2022/03/22 11:18:18;;;;;;;14.90;13.50;;;16.70;31.00;;;;;;5013303;28;20186;-84
2022/03/22 11:20:57;;;;;;;16.13;14.43;;;17.00;30.30;;;;;;5012262;28;20189;-84
2022/03/22 11:23:26;;;;;;;15.77;14.17;;;17.40;29.90;;;;;;5010249;28;20275;-84
2022/03/22 11:25:52;;;;;;;15.87;14.30;;;17.40;29.70;;;;;;5020255;28;20233;-84
2022/03/22 11:28:20;;;;;;;18.23;15.37;;;17.40;29.20;;;;;;5011074;28;20193;-84
2022/03/22 11:30:46;;;;;;;15.10;13.50;;;17.40;30.20;;;;;;5030722;28;20181;-84
2022/03/22 11:36:11;;;;;;;14.73;13.43;;;17.60;29.50;;;;;;5027488;28;20215;-85
2022/03/22 11:38:37;;;;;;;16.50;15.00;;;18.20;29.20;;;;;;5030448;28;20194;-85
2022/03/22 11:43:48;;;;;;;16.00;14.30;;;18.50;28.00;;;;;;5012068;28;20246;-84
2022/03/22 11:46:14;;;;;;;24.27;14.43;;;18.80;27.90;;;;;;5031425;28;20248;-85
2022/03/22 11:48:40;;;;;;;15.85;14.25;;;19.00;27.80;;;;;;5027456;28;20839;-85
2022/03/22 11:51:07;;;;;;;16.42;14.32;;;19.10;27.10;;;;;;5030568;28;20200;-84
2022/03/22 11:53:44;;;;;;;15.95;14.35;;;19.50;26.20;;;;;;5030904;28;20225;-84
2022/03/22 11:56:10;;;;;;;14.43;13.13;;;19.30;25.70;;;;;;5009700;28;20262;-83
2022/03/22 11:58:37;;;;;;;14.45;13.15;;;19.40;25.50;;;;;;5031166;28;20232;-85
2022/03/22 12:01:03;;;;;;;15.32;13.88;;;19.70;25.80;;;;;;5029484;28;20188;-84
2022/03/22 12:03:33;;;;;;;15.50;13.95;;;19.70;25.90;;;;;;5025158;28;20216;-84
2022/03/22 12:06:12;;;;;;;15.63;14.07;;;19.60;26.60;;;;;;5027545;28;20183;-85
2022/03/22 12:08:38;;;;;;;14.85;13.48;;;19.10;26.00;;;;;;5021019;28;20193;-84
2022/03/22 12:11:04;;;;;;;14.55;13.35;;;18.80;26.10;;;;;;5021229;28;20224;-85
2022/03/22 12:13:33;;;;;;;16.02;13.25;;;18.60;25.30;;;;;;5021775;28;20220;-84
2022/03/22 12:16:00;;;;;;;15.02;13.45;;;19.40;23.90;;;;;;5003199;28;20190;-84
2022/03/22 12:18:32;;;;;;;14.30;12.88;;;19.70;24.20;;;;;;5023471;28;20200;-84
2022/03/22 12:20:59;;;;;;;15.02;13.63;;;19.60;25.10;;;;;;5021846;28;20778;-85
2022/03/22 12:23:26;;;;;;;14.27;13.00;;;19.40;26.80;;;;;;5024931;28;20229;-84
2022/03/22 12:25:52;;;;;;;15.35;13.07;;;19.00;26.00;;;;;;5006360;28;21260;-85
2022/03/22 12:28:18;;;;;;;14.95;13.43;;;18.90;26.10;;;;;;5021527;28;20224;-84
2022/03/22 12:30:45;;;;;;;15.98;14.38;;;19.20;25.80;;;;;;5023903;28;20792;-84
2022/03/22 12:33:14;;;;;;;16.55;13.70;;;19.30;26.40;;;;;;5024411;28;20255;-84
2022/03/22 12:35:41;;;;;;;16.05;14.45;;;19.30;26.40;;;;;;5021108;28;20181;-84
2022/03/22 12:38:08;;;;;;;15.15;13.65;;;19.80;25.00;;;;;;5022099;28;20204;-84
2022/03/22 12:40:35;;;;;;;15.45;13.20;;;19.70;25.00;;;;;;5020312;28;20213;-85
2022/03/22 12:43:03;;;;;;;16.42;13.68;;;20.20;24.30;;;;;;5018583;28;20687;-84
2022/03/22 12:45:32;;;;;;;15.80;14.18;;;20.00;24.50;;;;;;5020290;28;20206;-84
2022/03/22 12:47:58;;;;;;;14.80;13.23;;;20.00;24.20;;;;;;5023639;28;20208;-84
2022/03/22 12:50:27;;;;;;;14.00;12.68;;;20.80;23.50;;;;;;5020970;28;20349;-85
2022/03/22 12:52:53;;;;;;;13.77;12.40;;;21.60;22.50;;;;;;5024813;28;20199;-84
2022/03/22 12:55:22;;;;;;;13.98;12.52;;;21.10;22.80;;;;;;5015615;28;20289;-85
2022/03/22 12:57:48;;;;;;;13.63;12.32;;;20.70;22.90;;;;;;5020201;28;20215;-85
2022/03/22 13:00:39;;;;;;;14.70;13.30;;;21.20;23.60;;;;;;5028549;28;20215;-85
2022/03/22 13:03:13;;;;;;;15.05;13.50;;;21.80;22.60;;;;;;5019354;28;20223;-85
2022/03/22 13:05:43;;;;;;;14.90;13.52;;;22.00;23.20;;;;;;5019021;28;20292;-85